Time;durP1;ratioP1;P1;durP2;ratioP2;P2;SDS_P1;SDS_P2;PMS_P1;PMS_P2;Temp;Humidity;BMP_temperature;BMP_pressure;BME280_temperature;BME280_humidity;BME280_pressure;Samples;Min_cycle;Max_cycle;Signal;HPM_P1;HPM_P2
2021/03/29 00:01:35;;;;;;;5.85;2.20;;;10.00;67.40;;;;;;4897172;29;20151;-77
2021/03/29 00:04:02;;;;;;;4.75;2.25;;;10.00;67.60;;;;;;4896458;29;20111;-77
2021/03/29 00:06:30;;;;;;;6.45;2.40;;;9.90;67.90;;;;;;4895693;29;20136;-77
2021/03/29 00:08:58;;;;;;;5.93;2.20;;;9.90;67.80;;;;;;4912562;29;20292;-77
2021/03/29 00:11:25;;;;;;;4.55;2.45;;;9.90;67.60;;;;;;4913782;29;20498;-78
2021/03/29 00:13:54;;;;;;;5.60;2.20;;;9.80;67.70;;;;;;4906348;29;20479;-77
2021/03/29 00:16:23;;;;;;;6.18;2.67;;;9.80;68.00;;;;;;4903311;29;20139;-77
2021/03/29 00:18:50;;;;;;;5.25;2.38;;;9.70;67.60;;;;;;4914085;29;20143;-76
2021/03/29 00:21:18;;;;;;;4.88;2.40;;;9.80;68.10;;;;;;4904188;29;20088;-76
2021/03/29 00:23:45;;;;;;;7.22;2.60;;;9.80;67.60;;;;;;4895001;29;20566;-76
2021/03/29 00:26:12;;;;;;;5.57;2.50;;;9.80;67.70;;;;;;4895094;29;20139;-75
2021/03/29 00:28:39;;;;;;;6.15;2.67;;;9.90;68.30;;;;;;4894930;29;20489;-76
2021/03/29 00:31:08;;;;;;;5.75;2.30;;;9.90;68.40;;;;;;4902837;29;20051;-77
2021/03/29 00:33:37;;;;;;;5.82;2.50;;;9.90;67.90;;;;;;4913881;29;20056;-77
2021/03/29 00:36:07;;;;;;;6.13;3.13;;;10.00;68.10;;;;;;4914184;29;20131;-76
2021/03/29 00:38:34;;;;;;;6.95;2.33;;;10.00;67.60;;;;;;4919949;29;20106;-77
2021/03/29 00:41:08;;;;;;;8.15;2.80;;;10.00;67.90;;;;;;4918456;29;20082;-78
2021/03/29 00:43:39;;;;;;;5.43;2.67;;;10.00;67.50;;;;;;4920419;29;20048;-76
2021/03/29 00:46:09;;;;;;;5.72;2.72;;;10.00;67.00;;;;;;4920296;29;20845;-77
2021/03/29 00:48:36;;;;;;;6.00;2.55;;;10.00;65.70;;;;;;4920423;29;20323;-75
2021/03/29 00:51:12;;;;;;;5.38;2.40;;;10.00;65.80;;;;;;4919350;29;20477;-77
2021/03/29 00:53:42;;;;;;;5.53;2.63;;;10.00;65.50;;;;;;4922401;29;20055;-76
2021/03/29 00:56:11;;;;;;;6.28;2.35;;;10.00;65.40;;;;;;4912219;29;20150;-76
2021/03/29 00:58:39;;;;;;;5.95;2.38;;;10.00;65.60;;;;;;4912871;29;20080;-75
2021/03/29 01:01:09;;;;;;;6.40;2.60;;;10.00;65.80;;;;;;4913437;29;20069;-76
2021/03/29 01:03:39;;;;;;;5.05;2.50;;;9.90;66.60;;;;;;4920620;29;20123;-77
2021/03/29 01:06:15;;;;;;;5.75;2.50;;;10.00;67.10;;;;;;4920410;29;20090;-77
2021/03/29 01:08:44;;;;;;;5.57;2.30;;;10.00;67.30;;;;;;4920779;29;20067;-76
2021/03/29 01:11:16;;;;;;;6.15;2.50;;;10.10;67.50;;;;;;4922038;29;20577;-78
2021/03/29 01:13:46;;;;;;;7.88;2.70;;;10.00;67.90;;;;;;4922948;29;20506;-76
2021/03/29 01:16:16;;;;;;;6.32;2.47;;;10.00;68.10;;;;;;4922818;29;20107;-77
2021/03/29 01:18:47;;;;;;;6.43;2.60;;;10.00;68.60;;;;;;4926079;29;20118;-76
2021/03/29 01:21:39;;;;;;;5.72;2.55;;;10.00;68.70;;;;;;4928635;29;20045;-74
2021/03/29 01:24:17;;;;;;;5.80;2.35;;;9.90;69.10;;;;;;4909301;29;20455;-77
2021/03/29 01:26:47;;;;;;;5.95;2.40;;;9.80;69.80;;;;;;4903750;29;20448;-77
2021/03/29 01:29:16;;;;;;;6.43;2.40;;;9.80;69.60;;;;;;4908962;29;20044;-77
2021/03/29 01:31:43;;;;;;;6.18;2.60;;;9.80;70.00;;;;;;4922554;29;20136;-76
2021/03/29 01:34:13;;;;;;;5.88;2.60;;;9.70;70.40;;;;;;4922531;29;20482;-77
2021/03/29 01:36:42;;;;;;;5.88;2.83;;;9.50;71.00;;;;;;4922385;29;20056;-76
2021/03/29 01:39:11;;;;;;;6.60;3.05;;;9.60;71.20;;;;;;4922336;29;20100;-76
2021/03/29 01:41:38;;;;;;;7.45;3.25;;;9.60;70.90;;;;;;4918477;29;20072;-76
2021/03/29 01:44:07;;;;;;;7.70;3.00;;;9.50;71.20;;;;;;4907400;29;20083;-78
2021/03/29 01:46:34;;;;;;;7.88;2.90;;;9.40;71.60;;;;;;4921973;29;20538;-77
2021/03/29 01:49:00;;;;;;;5.95;2.78;;;9.30;72.10;;;;;;4917490;29;20561;-77
2021/03/29 01:51:29;;;;;;;6.40;2.58;;;9.20;72.90;;;;;;4913455;29;20127;-77
2021/03/29 01:53:57;;;;;;;6.55;2.83;;;9.10;73.40;;;;;;4905379;29;20049;-75
2021/03/29 01:56:24;;;;;;;5.90;2.63;;;9.10;74.30;;;;;;4909919;29;20056;-75
2021/03/29 01:58:50;;;;;;;6.35;2.45;;;9.00;74.50;;;;;;4909673;29;20095;-75
2021/03/29 02:01:18;;;;;;;7.50;2.90;;;9.00;75.20;;;;;;4914197;29;20397;-75
2021/03/29 02:03:45;;;;;;;6.35;2.70;;;8.90;76.20;;;;;;4928112;29;20091;-76
2021/03/29 02:06:12;;;;;;;7.25;2.42;;;8.90;77.10;;;;;;4920886;29;20096;-77
2021/03/29 02:08:42;;;;;;;6.82;3.00;;;8.90;76.20;;;;;;4922224;29;20084;-76
2021/03/29 02:11:08;;;;;;;5.00;2.40;;;8.90;76.80;;;;;;4916697;29;20044;-77
2021/03/29 02:13:39;;;;;;;5.50;2.60;;;8.80;77.30;;;;;;4900021;29;20147;-75
2021/03/29 02:16:10;;;;;;;6.40;2.70;;;8.90;77.10;;;;;;4910618;29;20091;-75
2021/03/29 02:18:41;;;;;;;6.90;2.80;;;8.90;76.10;;;;;;4918752;29;20148;-75
2021/03/29 02:21:11;;;;;;;6.90;2.55;;;8.80;76.60;;;;;;4918959;29;20087;-76
2021/03/29 02:23:40;;;;;;;4.65;2.28;;;8.80;76.80;;;;;;4914782;29;20139;-77
2021/03/29 02:26:08;;;;;;;6.93;2.55;;;8.70;77.60;;;;;;4918892;29;20479;-77
2021/03/29 02:28:35;;;;;;;7.05;2.67;;;8.60;78.30;;;;;;4918655;29;20098;-76
2021/03/29 02:31:03;;;;;;;5.40;2.55;;;8.60;79.00;;;;;;4923294;29;20096;-77
2021/03/29 02:33:32;;;;;;;6.68;2.83;;;8.70;79.20;;;;;;4925323;29;20055;-76
2021/03/29 02:35:59;;;;;;;6.05;2.50;;;8.70;79.00;;;;;;4918547;29;20084;-76
2021/03/29 02:38:26;;;;;;;5.63;2.45;;;8.70;79.80;;;;;;4903578;29;20136;-75
2021/03/29 02:40:56;;;;;;;5.85;2.38;;;8.60;80.10;;;;;;4899958;29;20140;-76
2021/03/29 02:43:23;;;;;;;5.90;2.40;;;8.60;80.80;;;;;;4902650;29;20080;-76
2021/03/29 02:45:53;;;;;;;4.80;2.25;;;8.60;80.60;;;;;;4910613;29;20135;-76
2021/03/29 02:48:24;;;;;;;5.82;2.70;;;8.60;80.20;;;;;;4918281;29;20080;-76
2021/03/29 02:50:55;;;;;;;6.15;2.63;;;8.50;80.10;;;;;;4918441;29;20087;-76
2021/03/29 02:53:26;;;;;;;5.47;2.30;;;8.50;80.30;;;;;;4902158;29;20084;-77
2021/03/29 02:55:54;;;;;;;5.35;2.75;;;8.50;80.40;;;;;;4899429;29;20135;-77
2021/03/29 02:58:24;;;;;;;5.72;2.70;;;8.50;81.20;;;;;;4899410;29;20083;-76
2021/03/29 03:00:53;;;;;;;5.28;2.03;;;8.40;81.60;;;;;;4908282;29;20139;-77
2021/03/29 03:03:20;;;;;;;6.13;2.40;;;8.50;81.60;;;;;;4900803;29;20088;-74
2021/03/29 03:05:47;;;;;;;6.90;2.50;;;8.40;82.00;;;;;;4897208;29;20132;-76
2021/03/29 03:08:14;;;;;;;6.95;2.78;;;8.40;82.20;;;;;;4897028;29;20084;-77
2021/03/29 03:10:43;;;;;;;5.05;2.33;;;8.50;82.40;;;;;;4897631;29;20128;-76
2021/03/29 03:13:11;;;;;;;6.03;2.78;;;8.40;82.40;;;;;;4910586;29;20090;-77
2021/03/29 03:15:39;;;;;;;7.03;2.53;;;8.40;82.00;;;;;;4915735;29;20135;-75
2021/03/29 03:18:08;;;;;;;4.55;2.40;;;8.40;82.10;;;;;;4915923;29;20075;-77
2021/03/29 03:20:38;;;;;;;6.70;2.33;;;8.50;82.20;;;;;;4915605;29;20585;-77
2021/03/29 03:23:13;;;;;;;3.97;2.13;;;8.40;82.30;;;;;;4914601;29;20232;-78
2021/03/29 03:25:43;;;;;;;5.50;2.42;;;8.40;82.20;;;;;;4915426;29;20048;-77
2021/03/29 03:28:13;;;;;;;5.65;2.67;;;8.40;82.10;;;;;;4901932;29;20148;-77
2021/03/29 03:30:42;;;;;;;4.47;2.10;;;8.30;82.30;;;;;;4896810;29;20072;-76
2021/03/29 03:33:12;;;;;;;7.07;2.55;;;8.30;82.30;;;;;;4908629;29;20076;-76
2021/03/29 03:35:41;;;;;;;5.72;2.58;;;8.20;82.60;;;;;;4915545;29;20139;-75
2021/03/29 03:38:14;;;;;;;5.65;2.38;;;8.20;82.40;;;;;;4913515;29;20135;-75
2021/03/29 03:40:44;;;;;;;5.22;2.40;;;8.30;80.80;;;;;;4915601;29;20079;-76
2021/03/29 03:43:15;;;;;;;6.05;2.38;;;7.90;80.90;;;;;;4910358;29;20076;-78
2021/03/29 03:45:46;;;;;;;5.53;2.28;;;8.00;81.40;;;;;;4907071;29;20131;-77
2021/03/29 03:48:14;;;;;;;5.35;2.30;;;7.90;82.00;;;;;;4896540;29;20396;-78
2021/03/29 03:50:42;;;;;;;5.38;2.20;;;7.80;83.00;;;;;;4896102;29;20072;-78
2021/03/29 03:53:09;;;;;;;5.70;2.25;;;7.80;83.40;;;;;;4907565;29;20059;-78
2021/03/29 03:55:37;;;;;;;5.10;2.28;;;7.70;84.60;;;;;;4915121;29;20080;-79
2021/03/29 03:58:05;;;;;;;5.82;2.40;;;7.70;84.00;;;;;;4915114;29;20090;-78
2021/03/29 04:00:32;;;;;;;5.07;1.95;;;7.70;83.90;;;;;;4914363;29;20481;-79
2021/03/29 04:02:59;;;;;;;5.35;2.17;;;7.80;84.40;;;;;;4904237;29;20135;-79
2021/03/29 04:05:26;;;;;;;5.95;2.03;;;7.70;84.30;;;;;;4896169;29;20064;-79
2021/03/29 04:07:54;;;;;;;4.85;2.28;;;7.70;84.30;;;;;;4913632;29;20591;-75
2021/03/29 04:10:25;;;;;;;4.22;2.05;;;7.70;84.50;;;;;;4915151;29;20059;-78
2021/03/29 04:12:52;;;;;;;6.10;2.20;;;7.70;83.70;;;;;;4913499;29;20075;-79
2021/03/29 04:15:21;;;;;;;5.70;1.88;;;7.70;83.30;;;;;;4914841;29;20077;-79
2021/03/29 04:17:48;;;;;;;4.95;2.33;;;7.70;83.70;;;;;;4903819;29;20048;-77
2021/03/29 04:20:16;;;;;;;5.10;2.20;;;7.70;83.90;;;;;;4896110;29;20090;-75
2021/03/29 04:22:43;;;;;;;4.78;2.10;;;7.70;83.80;;;;;;4913220;29;20072;-74
2021/03/29 04:25:12;;;;;;;4.45;1.90;;;7.80;83.30;;;;;;4896744;29;20124;-76
2021/03/29 04:27:40;;;;;;;5.45;1.80;;;7.80;82.90;;;;;;4894059;29;20185;-74
2021/03/29 04:30:11;;;;;;;5.85;2.33;;;7.80;82.20;;;;;;4895729;29;20048;-74
2021/03/29 04:32:39;;;;;;;4.53;2.20;;;7.80;81.70;;;;;;4895869;29;20469;-77
2021/03/29 04:35:08;;;;;;;5.03;2.10;;;7.90;82.10;;;;;;4896004;29;20079;-75
2021/03/29 04:37:35;;;;;;;5.47;2.10;;;7.80;82.20;;;;;;4895567;29;20053;-75
2021/03/29 04:40:03;;;;;;;5.60;2.17;;;7.90;82.30;;;;;;4895786;29;20131;-74
2021/03/29 04:42:30;;;;;;;6.43;2.28;;;7.90;82.30;;;;;;4895517;29;20140;-75
2021/03/29 04:44:57;;;;;;;6.63;3.47;;;7.80;81.00;;;;;;4895544;29;20479;-77
2021/03/29 04:47:23;;;;;;;9.95;3.55;;;7.80;80.90;;;;;;4895379;29;20087;-75
2021/03/29 04:49:51;;;;;;;8.52;3.55;;;7.70;81.10;;;;;;4895693;29;20135;-75
2021/03/29 04:52:18;;;;;;;5.45;2.53;;;7.60;80.70;;;;;;4895825;29;20076;-75
2021/03/29 04:54:44;;;;;;;6.45;2.70;;;7.50;81.60;;;;;;4901533;29;20053;-76
2021/03/29 04:57:11;;;;;;;8.25;4.18;;;7.50;82.10;;;;;;4906387;29;20095;-76
2021/03/29 04:59:37;;;;;;;8.02;3.78;;;7.40;82.50;;;;;;4899712;29;20089;-73
2021/03/29 05:02:04;;;;;;;7.75;3.88;;;7.30;83.40;;;;;;4896013;29;20065;-74
2021/03/29 05:04:31;;;;;;;8.45;4.00;;;7.30;83.90;;;;;;4895942;29;20136;-74
2021/03/29 05:06:58;;;;;;;7.07;3.15;;;7.30;84.80;;;;;;4895770;29;20077;-75
2021/03/29 05:09:25;;;;;;;5.80;3.15;;;7.30;85.50;;;;;;4895435;29;20104;-75
2021/03/29 05:11:52;;;;;;;5.28;2.80;;;7.30;85.90;;;;;;4895546;29;20588;-74
2021/03/29 05:14:19;;;;;;;6.18;2.65;;;7.40;85.90;;;;;;4895810;29;20113;-75
2021/03/29 05:16:48;;;;;;;7.47;3.30;;;7.40;86.30;;;;;;4895748;29;20079;-74
2021/03/29 05:19:15;;;;;;;6.57;2.53;;;7.40;86.00;;;;;;4895637;29;20140;-74
2021/03/29 05:21:41;;;;;;;6.65;2.70;;;7.40;86.30;;;;;;4895583;29;20135;-76
2021/03/29 05:24:09;;;;;;;6.55;2.90;;;7.40;86.10;;;;;;4898619;29;20080;-76
2021/03/29 05:26:36;;;;;;;7.68;2.60;;;7.40;85.70;;;;;;4899280;29;20048;-75
2021/03/29 05:29:03;;;;;;;4.68;2.30;;;7.40;86.20;;;;;;4899230;29;20139;-74
2021/03/29 05:31:35;;;;;;;6.18;2.63;;;7.40;86.30;;;;;;4903349;29;20053;-74
2021/03/29 05:34:02;;;;;;;6.53;2.53;;;7.40;86.10;;;;;;4907704;29;20075;-75
2021/03/29 05:36:28;;;;;;;6.80;2.55;;;7.40;86.40;;;;;;4908712;29;20108;-75
2021/03/29 05:38:55;;;;;;;5.43;2.40;;;7.40;86.80;;;;;;4904918;29;20063;-75
2021/03/29 05:41:22;;;;;;;4.82;2.60;;;7.40;87.60;;;;;;4899872;29;20077;-75
2021/03/29 05:43:49;;;;;;;5.97;2.88;;;7.50;87.80;;;;;;4901207;29;20076;-75
2021/03/29 05:46:16;;;;;;;6.38;2.60;;;7.50;87.90;;;;;;4901094;29;20092;-76
2021/03/29 05:48:43;;;;;;;7.20;3.08;;;7.50;88.60;;;;;;4900754;29;20144;-75
2021/03/29 05:51:11;;;;;;;6.57;2.63;;;7.60;88.30;;;;;;4901652;29;20178;-74
2021/03/29 05:53:38;;;;;;;6.65;2.70;;;7.50;88.70;;;;;;4900931;29;20564;-74
2021/03/29 05:56:07;;;;;;;6.57;2.60;;;7.60;88.00;;;;;;4899661;29;20049;-76
2021/03/29 05:58:42;;;;;;;10.32;2.97;;;7.60;87.50;;;;;;4901192;29;20055;-75
2021/03/29 06:01:09;;;;;;;5.68;2.40;;;7.70;87.10;;;;;;4899874;29;20411;-75
2021/03/29 06:03:38;;;;;;;5.50;2.22;;;7.60;87.50;;;;;;4899682;29;20521;-75
2021/03/29 06:06:19;;;;;;;6.32;2.67;;;7.60;88.30;;;;;;4899798;29;20048;-75
2021/03/29 06:08:47;;;;;;;5.30;2.38;;;7.60;89.50;;;;;;4900521;29;20503;-77
2021/03/29 06:11:28;;;;;;;6.03;2.47;;;7.60;89.50;;;;;;4902077;29;20087;-75
2021/03/29 06:14:14;;;;;;;6.15;2.58;;;7.70;89.50;;;;;;4908766;29;20048;-76
2021/03/29 06:16:59;;;;;;;5.82;2.38;;;7.70;89.80;;;;;;4900676;29;20468;-74
2021/03/29 06:19:48;;;;;;;5.35;2.55;;;7.70;90.00;;;;;;4901628;29;20112;-75
2021/03/29 06:22:22;;;;;;;8.40;2.75;;;7.80;90.20;;;;;;4900526;29;20439;-74
2021/03/29 06:25:11;;;;;;;6.20;2.58;;;7.90;87.70;;;;;;4900203;29;20052;-74
2021/03/29 06:27:44;;;;;;;6.57;2.80;;;8.00;87.10;;;;;;4900316;29;20103;-76
2021/03/29 06:30:24;;;;;;;7.60;2.53;;;7.90;87.60;;;;;;4900726;29;20056;-74
2021/03/29 06:33:06;;;;;;;8.23;2.60;;;8.00;87.10;;;;;;4900275;29;20155;-74
2021/03/29 06:35:38;;;;;;;6.47;2.90;;;8.00;87.50;;;;;;4899950;29;20411;-76
2021/03/29 06:38:15;;;;;;;5.93;2.63;;;8.00;87.60;;;;;;4901008;29;20053;-76
2021/03/29 06:40:46;;;;;;;6.43;2.80;;;8.10;88.80;;;;;;4899728;29;20052;-76
2021/03/29 06:43:25;;;;;;;5.65;2.80;;;8.10;89.40;;;;;;4900923;29;20084;-75
2021/03/29 06:45:55;;;;;;;6.20;2.70;;;8.20;89.40;;;;;;4900391;29;20072;-75
2021/03/29 06:48:25;;;;;;;5.03;2.70;;;8.30;89.80;;;;;;4900186;29;20422;-76
2021/03/29 06:51:11;;;;;;;5.80;2.67;;;8.40;87.60;;;;;;4899940;29;20087;-76
2021/03/29 06:53:41;;;;;;;7.03;2.97;;;8.50;86.80;;;;;;4899943;29;20507;-75
2021/03/29 06:56:29;;;;;;;6.45;3.08;;;8.50;86.80;;;;;;4900303;29;20127;-76
2021/03/29 06:58:58;;;;;;;5.70;3.15;;;8.60;87.20;;;;;;4900621;29;20071;-75
2021/03/29 07:01:26;;;;;;;8.15;3.10;;;8.60;87.60;;;;;;4900045;29;20139;-75
2021/03/29 07:03:55;;;;;;;6.00;2.88;;;8.80;87.70;;;;;;4900469;29;20087;-76
2021/03/29 07:06:26;;;;;;;4.95;2.50;;;8.90;86.10;;;;;;4898716;29;20136;-77
2021/03/29 07:09:01;;;;;;;5.95;2.72;;;8.90;85.80;;;;;;4899449;29;20088;-75
2021/03/29 07:11:28;;;;;;;5.70;2.47;;;9.10;85.00;;;;;;4899691;29;20283;-75
2021/03/29 07:13:55;;;;;;;5.50;2.80;;;9.20;84.90;;;;;;4900462;29;20467;-75
2021/03/29 07:16:25;;;;;;;8.15;3.13;;;9.30;84.50;;;;;;4900413;29;20404;-75
2021/03/29 07:18:58;;;;;;;5.85;2.47;;;9.40;83.70;;;;;;4899990;29;20525;-76
2021/03/29 07:21:25;;;;;;;7.13;2.97;;;9.40;83.30;;;;;;4900395;29;20528;-77
2021/03/29 07:23:52;;;;;;;9.25;3.05;;;9.40;83.10;;;;;;4900730;29;20083;-76
2021/03/29 07:26:29;;;;;;;6.65;2.50;;;9.50;83.20;;;;;;4906930;29;20499;-77
2021/03/29 07:28:56;;;;;;;5.82;2.60;;;9.60;83.80;;;;;;4910224;29;20073;-76
2021/03/29 07:31:42;;;;;;;6.15;2.80;;;9.70;83.20;;;;;;4909712;29;20431;-77
2021/03/29 07:34:09;;;;;;;4.35;2.42;;;9.90;82.20;;;;;;4909308;29;20045;-75
2021/03/29 07:36:49;;;;;;;7.75;2.90;;;9.90;80.10;;;;;;4899174;29;20603;-77
2021/03/29 07:39:25;;;;;;;7.53;2.70;;;10.00;78.90;;;;;;4899113;29;20052;-74
2021/03/29 07:42:37;;;;;;;7.45;3.03;;;9.90;77.50;;;;;;4898625;29;20059;-77
2021/03/29 07:45:10;;;;;;;5.80;2.60;;;10.00;76.90;;;;;;4896976;29;20053;-76
2021/03/29 07:47:47;;;;;;;8.40;2.80;;;10.10;76.40;;;;;;4898290;29;20053;-75
2021/03/29 07:50:46;;;;;;;6.63;2.95;;;10.20;76.90;;;;;;4898863;29;20396;-77
2021/03/29 07:53:18;;;;;;;6.38;2.70;;;10.30;76.00;;;;;;4886731;29;20132;-77
2021/03/29 07:55:48;;;;;;;5.75;2.65;;;10.30;75.40;;;;;;4899200;29;20140;-76
2021/03/29 07:58:16;;;;;;;5.00;2.35;;;10.50;75.30;;;;;;4899166;29;20080;-76
2021/03/29 08:01:00;;;;;;;5.75;2.80;;;10.50;75.20;;;;;;4898864;29;20082;-75
2021/03/29 08:04:00;;;;;;;5.43;2.45;;;10.70;74.70;;;;;;4909164;29;20081;-74
2021/03/29 08:06:46;;;;;;;6.47;2.80;;;10.80;74.60;;;;;;4899789;29;20053;-75
2021/03/29 08:09:20;;;;;;;5.43;2.80;;;10.80;74.30;;;;;;4899352;29;20112;-75
2021/03/29 08:11:56;;;;;;;6.97;3.10;;;10.90;74.10;;;;;;4900555;29;20396;-75
2021/03/29 08:14:28;;;;;;;6.10;2.75;;;11.00;72.50;;;;;;4900677;29;20080;-75
2021/03/29 08:16:55;;;;;;;7.20;2.88;;;11.10;72.60;;;;;;4900357;29;20570;-76
2021/03/29 08:19:25;;;;;;;5.95;2.45;;;11.20;71.70;;;;;;4899591;29;20136;-77
2021/03/29 08:21:54;;;;;;;4.30;2.28;;;11.30;72.30;;;;;;4899038;29;20472;-75
2021/03/29 08:24:25;;;;;;;4.97;2.42;;;11.40;71.00;;;;;;4908661;29;20055;-75
2021/03/29 08:26:53;;;;;;;6.10;2.70;;;11.40;70.70;;;;;;4906322;29;20049;-75
2021/03/29 08:29:29;;;;;;;6.40;2.63;;;11.50;71.40;;;;;;4898358;29;20511;-76
2021/03/29 08:32:15;;;;;;;4.70;2.22;;;11.60;70.50;;;;;;4898715;29;20059;-76
2021/03/29 08:34:53;;;;;;;6.30;2.40;;;11.70;71.60;;;;;;4898763;29;20136;-76
2021/03/29 08:37:25;;;;;;;6.20;2.45;;;11.80;70.90;;;;;;4898556;29;20134;-75
2021/03/29 08:39:54;;;;;;;6.57;2.53;;;11.80;70.50;;;;;;4898244;29;20142;-75
2021/03/29 08:42:27;;;;;;;7.72;2.90;;;11.90;70.40;;;;;;4898485;29;20510;-76
2021/03/29 08:44:54;;;;;;;5.45;2.50;;;12.00;71.00;;;;;;4898181;29;20091;-75
2021/03/29 08:47:23;;;;;;;4.80;2.50;;;12.00;70.70;;;;;;4898627;29;20048;-76
2021/03/29 08:49:53;;;;;;;5.70;2.28;;;12.00;70.90;;;;;;4900104;29;20057;-74
2021/03/29 08:52:20;;;;;;;4.95;2.72;;;12.10;70.50;;;;;;4906001;29;20049;-74
2021/03/29 08:54:50;;;;;;;4.85;2.22;;;12.10;70.50;;;;;;4905264;29;20044;-77
2021/03/29 08:57:16;;;;;;;5.70;2.40;;;12.20;70.30;;;;;;4899666;29;20087;-74
2021/03/29 08:59:43;;;;;;;5.50;2.45;;;12.30;70.30;;;;;;4901660;29;20084;-75
2021/03/29 09:02:15;;;;;;;6.22;2.50;;;12.40;70.40;;;;;;4901776;29;20230;-76
2021/03/29 09:04:55;;;;;;;6.13;2.30;;;12.40;70.30;;;;;;4902080;29;20131;-77
2021/03/29 09:07:28;;;;;;;6.05;2.42;;;12.50;70.30;;;;;;4901892;29;20419;-76
2021/03/29 09:09:56;;;;;;;5.68;2.20;;;12.60;69.50;;;;;;4902155;29;20084;-75
2021/03/29 09:12:29;;;;;;;4.95;2.17;;;12.70;69.60;;;;;;4902450;29;20053;-76
2021/03/29 09:14:56;;;;;;;4.88;2.03;;;12.80;68.30;;;;;;4902395;29;20057;-75
2021/03/29 09:17:28;;;;;;;5.00;1.80;;;12.90;67.60;;;;;;4901965;29;20084;-76
2021/03/29 09:19:57;;;;;;;5.63;2.00;;;13.00;66.70;;;;;;4901017;29;20056;-76
2021/03/29 09:22:34;;;;;;;5.63;2.20;;;13.10;62.50;;;;;;4902207;29;20148;-76
2021/03/29 09:25:02;;;;;;;4.65;1.88;;;13.30;63.30;;;;;;4901934;29;20523;-76
2021/03/29 09:27:34;;;;;;;5.63;1.55;;;13.30;60.30;;;;;;4901787;29;20127;-77
2021/03/29 09:30:05;;;;;;;4.25;1.33;;;13.40;57.60;;;;;;4901563;29;20056;-75
2021/03/29 09:32:33;;;;;;;4.93;1.70;;;13.60;55.50;;;;;;4901956;29;20080;-75
2021/03/29 09:35:01;;;;;;;4.57;1.98;;;13.60;53.00;;;;;;4906572;29;20135;-75
2021/03/29 09:37:30;;;;;;;5.15;1.50;;;13.90;50.60;;;;;;4908667;29;20078;-76
2021/03/29 09:40:00;;;;;;;5.45;1.58;;;13.90;50.60;;;;;;4920538;29;20059;-77
2021/03/29 09:42:41;;;;;;;4.22;1.55;;;14.00;50.70;;;;;;4909035;29;20053;-77
2021/03/29 09:45:14;;;;;;;5.28;1.60;;;14.10;50.20;;;;;;4901845;29;20087;-78
2021/03/29 09:47:42;;;;;;;15.07;6.97;;;14.20;49.20;;;;;;4910113;29;20079;-78
2021/03/29 09:50:12;;;;;;;8.15;3.70;;;14.30;49.30;;;;;;4915196;29;20036;-78
2021/03/29 09:52:42;;;;;;;7.97;3.30;;;14.40;49.30;;;;;;4917298;29;20080;-76
2021/03/29 09:55:13;;;;;;;7.97;1.95;;;14.50;49.10;;;;;;4909948;29;20048;-77
2021/03/29 09:57:44;;;;;;;5.95;1.67;;;14.60;48.80;;;;;;4924370;29;20060;-77
2021/03/29 10:00:18;;;;;;;3.80;1.40;;;14.70;50.20;;;;;;4929625;29;20059;-76
2021/03/29 10:02:47;;;;;;;5.90;2.15;;;14.70;50.40;;;;;;4927639;29;20084;-75
2021/03/29 10:05:17;;;;;;;8.00;3.28;;;14.90;50.20;;;;;;4926909;29;20565;-77
2021/03/29 10:07:52;;;;;;;11.90;6.18;;;14.90;49.40;;;;;;4928952;29;20143;-76
2021/03/29 10:10:30;;;;;;;5.75;2.08;;;15.00;48.80;;;;;;4908871;29;20063;-77
2021/03/29 10:13:11;;;;;;;4.03;1.50;;;15.10;47.20;;;;;;4905226;29;20048;-76
2021/03/29 10:15:39;;;;;;;4.63;1.75;;;15.20;47.90;;;;;;4906938;29;20052;-77
2021/03/29 10:18:10;;;;;;;8.43;2.20;;;15.30;46.60;;;;;;4908809;29;20060;-74
2021/03/29 10:20:41;;;;;;;5.70;1.42;;;15.30;46.10;;;;;;4913224;29;20079;-72
2021/03/29 10:23:23;;;;;;;3.40;1.25;;;15.30;47.20;;;;;;4913134;29;20052;-72
2021/03/29 10:26:20;;;;;;;4.20;1.10;;;15.40;47.00;;;;;;4920876;29;20059;-72
2021/03/29 10:28:57;;;;;;;6.40;1.35;;;15.50;47.00;;;;;;4902193;29;20052;-72
2021/03/29 10:31:24;;;;;;;4.90;1.30;;;15.60;46.50;;;;;;4900448;29;20080;-71
2021/03/29 10:33:51;;;;;;;3.28;1.25;;;15.70;46.30;;;;;;4899006;29;20079;-72
2021/03/29 10:36:20;;;;;;;6.10;1.23;;;15.80;43.60;;;;;;4897708;29;20128;-71
2021/03/29 10:38:48;;;;;;;4.03;1.15;;;15.90;41.90;;;;;;4897546;29;20136;-74
2021/03/29 10:41:15;;;;;;;4.72;1.40;;;15.90;41.50;;;;;;4897455;29;20587;-73
2021/03/29 10:43:42;;;;;;;3.85;1.20;;;16.00;43.60;;;;;;4897282;29;20049;-72
2021/03/29 10:46:09;;;;;;;4.35;1.15;;;16.20;43.20;;;;;;4897187;29;20076;-72
2021/03/29 10:48:36;;;;;;;3.53;1.00;;;16.20;42.00;;;;;;4897199;29;20136;-73
2021/03/29 10:51:05;;;;;;;5.10;1.35;;;16.30;41.30;;;;;;4896923;29;20045;-72
2021/03/29 10:53:33;;;;;;;2.78;1.02;;;16.50;39.20;;;;;;4897097;29;20558;-72
2021/03/29 10:56:00;;;;;;;3.90;1.40;;;16.50;38.90;;;;;;4899869;29;20045;-73
2021/03/29 10:58:26;;;;;;;3.97;1.13;;;16.60;39.00;;;;;;4906932;29;20064;-72
2021/03/29 11:00:53;;;;;;;4.65;1.17;;;16.60;39.70;;;;;;4907145;29;20095;-76
2021/03/29 11:03:20;;;;;;;5.03;1.20;;;16.60;38.50;;;;;;4899878;29;20498;-76
2021/03/29 11:05:47;;;;;;;4.50;1.30;;;16.80;34.40;;;;;;4896575;29;20470;-76
2021/03/29 11:08:13;;;;;;;3.17;1.20;;;16.70;35.40;;;;;;4896208;29;20466;-76
2021/03/29 11:10:41;;;;;;;4.32;1.20;;;16.70;35.30;;;;;;4896891;29;20466;-76
2021/03/29 11:13:07;;;;;;;3.55;1.17;;;16.70;35.50;;;;;;4895773;29;20094;-75
2021/03/29 11:15:34;;;;;;;3.55;1.20;;;16.80;35.80;;;;;;4896005;29;20087;-77
2021/03/29 11:18:04;;;;;;;4.53;1.23;;;16.80;35.60;;;;;;4896699;29;20055;-76
2021/03/29 11:20:30;;;;;;;4.13;1.30;;;16.80;35.40;;;;;;4896190;29;20054;-77
2021/03/29 11:22:57;;;;;;;4.22;1.30;;;16.90;36.00;;;;;;4896553;29;20136;-75
2021/03/29 11:25:24;;;;;;;7.93;3.53;;;17.00;36.40;;;;;;4896236;29;20099;-75
2021/03/29 11:27:51;;;;;;;19.77;8.93;;;17.00;36.50;;;;;;4896037;29;20059;-75
2021/03/29 11:30:18;;;;;;;4.38;1.50;;;17.00;36.80;;;;;;4896227;29;20060;-76
2021/03/29 11:32:46;;;;;;;3.42;1.38;;;17.10;36.30;;;;;;4896103;29;20132;-75
2021/03/29 11:35:13;;;;;;;5.68;1.40;;;17.10;35.90;;;;;;4896211;29;20380;-76
2021/03/29 11:37:40;;;;;;;3.60;1.30;;;17.20;35.90;;;;;;4896248;29;20080;-74
2021/03/29 11:40:11;;;;;;;3.72;1.20;;;17.40;35.20;;;;;;4895947;29;20136;-76
2021/03/29 11:42:39;;;;;;;4.43;1.33;;;17.30;35.60;;;;;;4899094;29;20100;-76
2021/03/29 11:45:09;;;;;;;3.80;1.30;;;17.30;36.30;;;;;;4909096;29;20043;-79
2021/03/29 11:47:36;;;;;;;3.63;1.30;;;17.50;34.70;;;;;;4914971;29;20594;-77
2021/03/29 11:50:09;;;;;;;3.65;1.27;;;17.60;35.20;;;;;;4914825;29;20569;-77
2021/03/29 11:52:36;;;;;;;5.00;1.50;;;17.60;35.40;;;;;;4914189;29;20554;-77
2021/03/29 11:55:03;;;;;;;3.35;1.30;;;17.80;35.90;;;;;;4914812;29;20883;-78
2021/03/29 11:57:29;;;;;;;5.18;1.60;;;17.80;36.30;;;;;;4914685;29;20140;-78
2021/03/29 11:59:56;;;;;;;4.93;1.60;;;17.90;37.30;;;;;;4914206;29;20577;-78
2021/03/29 12:02:27;;;;;;;4.10;1.40;;;18.00;36.10;;;;;;4914563;29;20056;-77
2021/03/29 12:05:03;;;;;;;6.93;3.08;;;18.10;35.70;;;;;;4914271;29;20052;-77
2021/03/29 12:07:35;;;;;;;3.28;1.25;;;18.20;35.60;;;;;;4914972;29;20079;-77
2021/03/29 12:12:49;;;;;;;4.93;1.33;;;18.20;36.30;;;;;;4914417;29;20111;-76
2021/03/29 12:15:17;;;;;;;2.90;1.10;;;18.30;36.50;;;;;;4914435;29;20059;-76
2021/03/29 12:17:48;;;;;;;2.88;1.13;;;18.40;36.70;;;;;;4914324;29;20087;-78
2021/03/29 12:20:16;;;;;;;3.97;1.40;;;18.60;35.20;;;;;;4914232;29;20388;-79
2021/03/29 12:22:45;;;;;;;4.85;1.48;;;18.70;35.10;;;;;;4914206;29;20075;-77
2021/03/29 12:25:17;;;;;;;4.45;1.20;;;18.80;35.80;;;;;;4914545;29;20498;-77
2021/03/29 12:27:44;;;;;;;3.00;1.33;;;19.00;35.40;;;;;;4914577;29;20131;-77
2021/03/29 12:30:15;;;;;;;3.78;1.30;;;19.20;34.70;;;;;;4914239;29;20088;-77
2021/03/29 12:32:42;;;;;;;4.30;1.50;;;19.40;34.50;;;;;;4913579;29;20528;-80
2021/03/29 12:35:16;;;;;;;4.80;1.70;;;19.50;35.10;;;;;;4914244;29;20091;-78
2021/03/29 12:37:44;;;;;;;5.15;1.33;;;19.70;34.60;;;;;;4914333;29;20487;-78
2021/03/29 12:40:15;;;;;;;4.80;1.55;;;19.80;34.30;;;;;;4925512;29;20134;-78
2021/03/29 12:42:50;;;;;;;5.10;1.38;;;19.90;33.90;;;;;;4918198;29;20044;-79
2021/03/29 12:45:23;;;;;;;4.07;1.67;;;20.00;33.80;;;;;;4907720;29;20059;-77
2021/03/29 12:47:51;;;;;;;2.63;0.98;;;20.30;32.90;;;;;;4895559;29;20936;-77
2021/03/29 12:50:21;;;;;;;3.88;1.30;;;20.40;33.10;;;;;;4896121;29;20136;-78
2021/03/29 12:52:49;;;;;;;3.78;1.20;;;20.50;32.50;;;;;;4895782;29;20052;-75
2021/03/29 12:55:21;;;;;;;2.85;1.00;;;20.60;32.30;;;;;;4894920;29;20053;-76
2021/03/29 12:57:48;;;;;;;4.43;1.38;;;20.70;32.50;;;;;;4900906;29;20052;-76
2021/03/29 13:00:19;;;;;;;3.47;1.35;;;20.90;32.50;;;;;;4905023;29;20100;-77
2021/03/29 13:02:47;;;;;;;3.45;1.20;;;21.00;31.70;;;;;;4905078;29;20064;-77
2021/03/29 13:05:19;;;;;;;3.47;1.35;;;21.10;32.60;;;;;;4904815;29;20266;-76
2021/03/29 13:07:52;;;;;;;3.78;1.40;;;21.30;32.40;;;;;;4896766;29;20155;-78
2021/03/29 13:13:01;;;;;;;4.72;1.55;;;21.50;31.50;;;;;;4895227;29;20053;-77
2021/03/29 13:15:28;;;;;;;3.13;1.42;;;21.50;30.60;;;;;;4895039;29;20089;-77